Time;durP1;ratioP1;P1;durP2;ratioP2;P2;SDS_P1;SDS_P2;PMS_P1;PMS_P2;Temp;Humidity;BMP_temperature;BMP_pressure;BME280_temperature;BME280_humidity;BME280_pressure;Samples;Min_cycle;Max_cycle;Signal;HPM_P1;HPM_P2
2024/04/23 05:01:02;;;;;;;22.50;10.80;;;;;;;;;;6003412;22;20487;-69
2024/04/23 05:03:28;;;;;;;18.13;10.43;;;;;;;;;;5244990;27;20500;-69
2024/04/23 05:05:53;;;;;;;20.40;9.93;;;;;;;;;;5244756;27;20463;-69
2024/04/23 05:08:19;;;;;;;19.53;11.10;;;;;;;;;;5245310;27;20507;-69
2024/04/23 05:10:45;;;;;;;16.97;10.17;;;;;;;;;;5244648;27;20978;-70
2024/04/23 05:13:11;;;;;;;20.30;9.97;;;;;;;;;;5245388;27;20986;-69
2024/04/23 05:15:37;;;;;;;23.67;10.47;;;;;;;;;;5249573;27;20452;-69
2024/04/23 05:18:03;;;;;;;18.90;9.60;;;;;;;;;;5234213;27;20465;-69
2024/04/23 05:20:29;;;;;;;18.03;8.90;;;;;;;;;;5217944;27;20528;-70
2024/04/23 05:22:55;;;;;;;18.33;9.63;;;;;;;;;;5218218;27;20805;-70
2024/04/23 05:25:21;;;;;;;19.47;10.60;;;;;;;;;;5218056;27;20460;-70
2024/04/23 05:27:47;;;;;;;19.27;9.40;;;;;;;;;;5200930;27;20488;-70
2024/04/23 05:32:46;;;;;;;13.97;8.17;;;;;;;;;;5178040;27;20493;-70
2024/04/23 05:32:59;;;;;;;10.07;6.87;;;;;;;;;;5177854;27;21031;-70
2024/04/23 05:35:25;;;;;;;17.60;8.00;;;;;;;;;;5193971;27;20464;-71
2024/04/23 05:37:51;;;;;;;13.67;8.00;;;;;;;;;;5243392;27;20541;-71
2024/04/23 05:40:17;;;;;;;12.10;7.00;;;;;;;;;;5243815;27;20448;-71
2024/04/23 05:42:43;;;;;;;12.20;7.43;;;;;;;;;;5243983;27;21034;-72
2024/04/23 05:45:09;;;;;;;16.37;6.93;;;;;;;;;;5242314;27;20643;-72
2024/04/23 05:47:54;;;;;;;12.47;7.80;;;;;;;;;;5243839;27;20448;-72
2024/04/23 05:50:38;;;;;;;15.47;7.77;;;;;;;;;;5244424;27;20511;-70
2024/04/23 05:53:23;;;;;;;11.13;6.67;;;;;;;;;;5241997;27;20467;-71
2024/04/23 05:55:49;;;;;;;14.77;7.10;;;;;;;;;;5230941;27;20607;-73
2024/04/23 05:58:15;;;;;;;13.23;7.17;;;;;;;;;;5178837;27;20455;-71
2024/04/23 06:00:41;;;;;;;11.23;7.13;;;;;;;;;;5176727;27;20471;-71
2024/04/23 06:03:06;;;;;;;12.40;6.47;;;;;;;;;;5178635;27;20514;-71
2024/04/23 06:05:32;;;;;;;9.47;5.90;;;;;;;;;;5202241;27;20541;-71
2024/04/23 06:07:59;;;;;;;11.67;6.53;;;;;;;;;;5193728;27;20997;-71
2024/04/23 06:10:25;;;;;;;12.20;7.23;;;;;;;;;;5177728;27;20571;-71
2024/04/23 06:12:51;;;;;;;14.93;7.17;;;;;;;;;;5176494;27;20466;-72
2024/04/23 06:15:17;;;;;;;9.57;7.03;;;;;;;;;;5177971;27;20502;-72
2024/04/23 06:17:43;;;;;;;10.00;7.00;;;;;;;;;;5201959;27;20550;-72
2024/04/23 06:20:09;;;;;;;14.67;7.20;;;;;;;;;;5197822;27;20973;-72
2024/04/23 06:22:42;;;;;;;8.07;5.70;;;;;;;;;;5178483;27;20442;-72
2024/04/23 06:25:08;;;;;;;11.40;6.87;;;;;;;;;;5178214;27;20507;-72
2024/04/23 06:27:38;;;;;;;11.20;5.93;;;;;;;;;;5184206;27;21004;-72
2024/04/23 06:30:08;;;;;;;10.83;7.03;;;;;;;;;;5205658;27;20945;-71
2024/04/23 06:32:34;;;;;;;11.93;7.00;;;;;;;;;;5206957;27;20545;-74
2024/04/23 06:35:00;;;;;;;12.97;6.53;;;;;;;;;;5210907;27;20969;-73
2024/04/23 06:37:25;;;;;;;10.97;6.30;;;;;;;;;;5220141;27;20480;-74
2024/04/23 06:39:51;;;;;;;11.47;6.40;;;;;;;;;;5185796;27;20470;-73
2024/04/23 06:42:17;;;;;;;11.30;7.23;;;;;;;;;;5197620;27;20817;-70
2024/04/23 06:44:43;;;;;;;10.20;7.10;;;;;;;;;;5211047;27;20449;-70
2024/04/23 06:47:09;;;;;;;12.93;7.40;;;;;;;;;;5207477;27;20480;-71
2024/04/23 06:49:37;;;;;;;16.03;7.20;;;;;;;;;;5192235;27;20527;-71
2024/04/23 06:52:03;;;;;;;12.07;7.10;;;;;;;;;;5205005;27;20478;-73
2024/04/23 06:54:29;;;;;;;16.80;6.40;;;;;;;;;;5206354;27;20537;-70
2024/04/23 06:56:56;;;;;;;12.23;6.93;;;;;;;;;;5191966;27;20482;-70
2024/04/23 06:59:22;;;;;;;8.83;6.40;;;;;;;;;;5179628;27;20465;-70
2024/04/23 07:01:48;;;;;;;10.53;6.07;;;;;;;;;;5198714;27;20468;-72
2024/04/23 07:04:14;;;;;;;12.40;6.80;;;;;;;;;;5190823;27;20525;-72
2024/04/23 07:06:40;;;;;;;16.10;6.83;;;;;;;;;;5185683;27;20466;-72
2024/04/23 07:09:07;;;;;;;13.43;7.17;;;;;;;;;;5178644;27;21009;-72
2024/04/23 07:11:33;;;;;;;9.80;6.90;;;;;;;;;;5196176;27;20538;-72
2024/04/23 07:13:59;;;;;;;10.17;6.57;;;;;;;;;;5177620;27;20454;-72
2024/04/23 07:16:25;;;;;;;9.97;6.10;;;;;;;;;;5177217;27;21082;-72
2024/04/23 07:18:51;;;;;;;11.60;7.17;;;;;;;;;;5205222;27;20464;-72
2024/04/23 07:21:17;;;;;;;9.53;6.40;;;;;;;;;;5243328;27;20515;-71
2024/04/23 07:23:43;;;;;;;12.17;5.97;;;;;;;;;;5207691;27;20469;-71
2024/04/23 07:26:09;;;;;;;12.17;6.70;;;;;;;;;;5201820;27;20532;-70
2024/04/23 07:28:35;;;;;;;10.90;6.60;;;;;;;;;;5196493;27;20546;-72
2024/04/23 07:31:01;;;;;;;9.30;6.73;;;;;;;;;;5198963;27;20580;-72
2024/04/23 07:33:27;;;;;;;7.53;5.90;;;;;;;;;;5210042;27;20505;-71
2024/04/23 07:35:53;;;;;;;11.33;6.40;;;;;;;;;;5200810;27;20629;-71
2024/04/23 07:38:19;;;;;;;10.83;6.00;;;;;;;;;;5193886;27;20519;-72
2024/04/23 07:40:46;;;;;;;9.13;6.57;;;;;;;;;;5194675;27;20470;-70
2024/04/23 07:43:14;;;;;;;14.07;7.73;;;;;;;;;;5191403;27;20474;-72
2024/04/23 07:45:40;;;;;;;11.43;6.90;;;;;;;;;;5198423;27;21061;-71
2024/04/23 07:48:06;;;;;;;9.40;6.10;;;;;;;;;;5205306;27;20473;-70
2024/04/23 07:50:32;;;;;;;10.20;6.70;;;;;;;;;;5209530;27;20477;-71
2024/04/23 07:53:03;;;;;;;12.13;7.20;;;;;;;;;;5212343;27;20540;-71
2024/04/23 07:55:29;;;;;;;13.13;7.10;;;;;;;;;;5197723;27;20521;-72
2024/04/23 07:57:55;;;;;;;11.30;7.20;;;;;;;;;;5193688;27;20469;-73
2024/04/23 08:00:24;;;;;;;11.13;7.80;;;;;;;;;;5179374;27;20966;-72
2024/04/23 08:02:54;;;;;;;9.00;6.60;;;;;;;;;;5176696;27;20872;-71
2024/04/23 08:05:20;;;;;;;7.67;6.70;;;;;;;;;;5182563;27;20812;-71
2024/04/23 08:07:46;;;;;;;8.47;6.07;;;;;;;;;;5201974;27;20531;-71
2024/04/23 08:10:17;;;;;;;11.20;7.70;;;;;;;;;;5209120;27;20460;-72
2024/04/23 08:12:43;;;;;;;15.07;7.10;;;;;;;;;;5209577;27;20573;-71
2024/04/23 08:15:09;;;;;;;12.10;7.40;;;;;;;;;;5209623;27;20461;-73
2024/04/23 08:17:35;;;;;;;9.07;7.50;;;;;;;;;;5205052;27;20607;-73
2024/04/23 08:20:00;;;;;;;11.90;5.87;;;;;;;;;;5208595;27;20473;-73
2024/04/23 08:22:26;;;;;;;10.63;6.70;;;;;;;;;;5190914;27;20478;-73
2024/04/23 08:24:52;;;;;;;8.33;6.30;;;;;;;;;;5176438;27;20514;-73
2024/04/23 08:27:18;;;;;;;11.40;6.90;;;;;;;;;;5177724;27;20490;-73
2024/04/23 08:29:44;;;;;;;10.27;7.13;;;;;;;;;;5201460;27;20465;-75
2024/04/23 08:32:10;;;;;;;9.03;6.80;;;;;;;;;;5212578;27;20537;-76
2024/04/23 08:34:36;;;;;;;17.17;8.30;;;;;;;;;;5208463;27;20536;-75
2024/04/23 08:37:06;;;;;;;15.73;7.20;;;;;;;;;;5190202;27;20560;-75
2024/04/23 08:39:32;;;;;;;13.37;6.43;;;;;;;;;;5205038;27;20544;-75
2024/04/23 08:42:00;;;;;;;14.20;7.23;;;;;;;;;;5209971;27;20477;-74
2024/04/23 08:44:26;;;;;;;13.30;6.70;;;;;;;;;;5207717;27;20524;-75
2024/04/23 08:46:53;;;;;;;15.73;6.97;;;;;;;;;;5210150;27;20453;-74
2024/04/23 08:49:19;;;;;;;9.13;5.80;;;;;;;;;;5211399;27;20561;-72
2024/04/23 08:51:45;;;;;;;9.20;6.93;;;;;;;;;;5201818;27;20526;-72
2024/04/23 08:54:12;;;;;;;9.77;6.50;;;;;;;;;;5180674;27;20470;-72
2024/04/23 08:56:41;;;;;;;10.70;6.43;;;;;;;;;;5178857;27;20981;-72
2024/04/23 08:59:08;;;;;;;10.20;6.73;;;;;;;;;;5190053;27;20480;-72
2024/04/23 09:01:39;;;;;;;14.40;7.17;;;;;;;;;;5220720;27;20563;-73
2024/04/23 09:04:06;;;;;;;14.40;7.30;;;;;;;;;;5205030;27;20473;-72
2024/04/23 09:06:33;;;;;;;8.80;6.13;;;;;;;;;;5186744;27;20530;-72
2024/04/23 09:08:59;;;;;;;12.33;6.30;;;;;;;;;;5212646;27;20479;-72
2024/04/23 09:11:28;;;;;;;11.13;6.07;;;;;;;;;;5226436;27;20474;-73
2024/04/23 09:13:55;;;;;;;9.50;5.80;;;;;;;;;;5211145;27;20441;-72
2024/04/23 09:16:21;;;;;;;9.50;6.00;;;;;;;;;;5207685;27;20576;-73
2024/04/23 09:18:49;;;;;;;10.07;6.67;;;;;;;;;;5197490;27;20525;-73
2024/04/23 09:21:15;;;;;;;8.80;5.70;;;;;;;;;;5196572;27;20470;-75
2024/04/23 09:23:41;;;;;;;13.20;6.67;;;;;;;;;;5180576;27;20446;-75
2024/04/23 09:26:07;;;;;;;10.47;6.27;;;;;;;;;;5203374;27;20465;-75
2024/04/23 09:28:34;;;;;;;17.27;6.60;;;;;;;;;;5192531;27;20474;-75
2024/04/23 09:31:03;;;;;;;11.47;7.03;;;;;;;;;;5211071;27;20469;-74
2024/04/23 09:33:31;;;;;;;14.57;6.77;;;;;;;;;;5181697;27;20477;-74
2024/04/23 09:36:00;;;;;;;13.93;6.60;;;;;;;;;;5181600;27;20530;-74
2024/04/23 09:38:26;;;;;;;8.87;5.70;;;;;;;;;;5177874;27;20458;-73
2024/04/23 09:40:52;;;;;;;8.70;5.30;;;;;;;;;;5200603;27;20609;-75
2024/04/23 09:43:22;;;;;;;11.30;5.97;;;;;;;;;;5211240;27;21036;-75
2024/04/23 09:45:48;;;;;;;10.80;5.53;;;;;;;;;;5208325;27;20473;-73
2024/04/23 09:48:15;;;;;;;9.67;6.57;;;;;;;;;;5210772;27;20505;-74
2024/04/23 09:50:41;;;;;;;10.60;5.77;;;;;;;;;;5214152;27;20533;-74
2024/04/23 09:53:09;;;;;;;10.90;6.20;;;;;;;;;;5185473;27;20470;-75
2024/04/23 09:55:36;;;;;;;10.23;6.20;;;;;;;;;;5198206;27;20540;-72
2024/04/23 09:58:02;;;;;;;9.47;6.10;;;;;;;;;;5210513;27;20876;-75
2024/04/23 10:00:32;;;;;;;6.70;5.70;;;;;;;;;;5206821;27;20481;-73
2024/04/23 10:03:08;;;;;;;11.27;6.30;;;;;;;;;;5202482;27;20813;-73
2024/04/23 10:05:36;;;;;;;9.00;5.53;;;;;;;;;;5181693;27;20466;-74
2024/04/23 10:08:08;;;;;;;15.30;4.93;;;;;;;;;;5208421;27;20508;-74
2024/04/23 10:10:37;;;;;;;7.93;5.70;;;;;;;;;;5210876;27;20866;-73
2024/04/23 10:13:04;;;;;;;8.40;6.20;;;;;;;;;;5194793;27;20515;-73
2024/04/23 10:15:57;;;;;;;8.20;5.63;;;;;;;;;;5189313;27;20470;-73
2024/04/23 10:18:34;;;;;;;10.67;6.67;;;;;;;;;;5202663;27;21275;-72
2024/04/23 10:21:01;;;;;;;8.33;5.60;;;;;;;;;;5199795;27;20751;-73
2024/04/23 10:23:27;;;;;;;9.57;6.00;;;;;;;;;;5186949;27;20611;-73
2024/04/23 10:25:54;;;;;;;10.03;6.10;;;;;;;;;;5194098;27;20524;-73
2024/04/23 10:28:20;;;;;;;8.90;5.50;;;;;;;;;;5188518;27;20530;-72
2024/04/23 10:30:46;;;;;;;7.70;5.83;;;;;;;;;;5199511;27;20572;-72
2024/04/23 10:33:13;;;;;;;10.80;6.03;;;;;;;;;;5205617;27;20475;-73
2024/04/23 10:35:40;;;;;;;11.63;5.37;;;;;;;;;;5207284;27;20505;-74
2024/04/23 10:38:07;;;;;;;10.17;6.50;;;;;;;;;;5221029;27;20523;-73
2024/04/23 10:40:33;;;;;;;7.47;5.60;;;;;;;;;;5194386;27;20846;-73
2024/04/23 10:42:59;;;;;;;9.20;5.33;;;;;;;;;;5177548;27;20467;-73
2024/04/23 10:45:25;;;;;;;10.70;4.93;;;;;;;;;;5186866;27;20473;-72
2024/04/23 10:47:52;;;;;;;6.47;5.13;;;;;;;;;;5189861;27;20872;-72
2024/04/23 10:50:25;;;;;;;7.90;4.70;;;;;;;;;;5199273;27;20508;-72
2024/04/23 10:52:55;;;;;;;8.27;5.30;;;;;;;;;;5193153;27;20462;-73
2024/04/23 10:55:22;;;;;;;7.70;5.00;;;;;;;;;;5197289;27;20470;-73
2024/04/23 10:57:48;;;;;;;8.43;5.83;;;;;;;;;;5176112;27;20973;-73
2024/04/23 11:00:14;;;;;;;11.13;6.50;;;;;;;;;;5178478;27;20566;-74
2024/04/23 11:02:40;;;;;;;9.53;5.40;;;;;;;;;;5210133;27;21236;-73
2024/04/23 11:05:16;;;;;;;8.03;5.03;;;;;;;;;;5194198;27;20543;-74
2024/04/23 11:07:49;;;;;;;6.47;4.73;;;;;;;;;;5201917;27;20463;-73
2024/04/23 11:10:19;;;;;;;5.57;4.35;;;;;;;;;;5198608;27;20404;-74
2024/04/23 11:12:45;;;;;;;7.87;5.57;;;;;;;;;;5194255;27;20268;-73
2024/04/23 11:15:15;;;;;;;7.10;4.90;;;;;;;;;;5257598;22;21037;-76
2024/04/23 11:17:41;;;;;;;7.77;5.17;;;;;;;;;;5241950;27;20467;-76
2024/04/23 11:20:07;;;;;;;6.57;5.07;;;;;;;;;;5244685;27;20475;-75
2024/04/23 11:22:34;;;;;;;8.47;6.00;;;;;;;;;;5241452;27;20592;-74
2024/04/23 11:25:04;;;;;;;8.50;5.30;;;;;;;;;;5202076;27;20474;-74
2024/04/23 11:27:31;;;;;;;8.03;6.17;;;;;;;;;;5176634;27;20458;-75
2024/04/23 11:29:56;;;;;;;6.90;5.37;;;;;;;;;;5176760;27;20792;-74
2024/04/23 11:32:23;;;;;;;9.90;5.73;;;;;;;;;;5177009;27;20510;-75
2024/04/23 11:34:49;;;;;;;8.97;5.83;;;;;;;;;;5178826;27;20482;-75
2024/04/23 11:37:22;;;;;;;9.07;5.53;;;;;;;;;;5195313;27;20804;-75
2024/04/23 11:39:55;;;;;;;7.03;4.70;;;;;;;;;;5190920;27;20552;-75
2024/04/23 11:42:23;;;;;;;7.77;5.40;;;;;;;;;;5180196;27;20479;-75
2024/04/23 11:44:49;;;;;;;10.23;5.40;;;;;;;;;;5176242;27;20567;-75
2024/04/23 11:47:15;;;;;;;6.97;4.77;;;;;;;;;;5176916;27;20879;-74
2024/04/23 11:49:41;;;;;;;7.53;4.97;;;;;;;;;;5176513;27;20474;-74
2024/04/23 11:52:07;;;;;;;8.03;5.60;;;;;;;;;;5205549;27;20997;-74
2024/04/23 11:54:34;;;;;;;9.20;6.13;;;;;;;;;;5186227;27;20466;-74
2024/04/23 11:57:00;;;;;;;10.90;6.27;;;;;;;;;;5175049;27;20502;-74
2024/04/23 11:59:26;;;;;;;8.00;5.20;;;;;;;;;;5205316;27;20566;-75
2024/04/23 12:01:52;;;;;;;8.33;5.43;;;;;;;;;;5193645;27;20481;-75
2024/04/23 12:04:19;;;;;;;8.50;5.43;;;;;;;;;;5181730;27;20478;-75
2024/04/23 12:06:46;;;;;;;6.57;4.83;;;;;;;;;;5177982;27;20496;-75
2024/04/23 12:09:12;;;;;;;9.03;5.77;;;;;;;;;;5176887;27;20565;-76
2024/04/23 12:11:38;;;;;;;6.13;4.57;;;;;;;;;;5176787;27;20463;-76
2024/04/23 12:14:09;;;;;;;7.50;5.40;;;;;;;;;;5176630;27;20526;-74
2024/04/23 12:16:35;;;;;;;7.40;5.13;;;;;;;;;;5192823;27;20517;-73
2024/04/23 12:19:01;;;;;;;8.37;5.63;;;;;;;;;;5201421;27;20469;-73
2024/04/23 12:21:27;;;;;;;11.00;5.87;;;;;;;;;;5192795;27;20463;-72
2024/04/23 12:23:53;;;;;;;9.47;5.70;;;;;;;;;;5194065;27;20471;-73
2024/04/23 12:26:21;;;;;;;7.57;5.00;;;;;;;;;;5176773;27;21185;-73
2024/04/23 12:28:47;;;;;;;12.00;5.43;;;;;;;;;;5176147;27;20583;-73
2024/04/23 12:31:13;;;;;;;9.73;4.90;;;;;;;;;;5177839;27;21074;-74
2024/04/23 12:33:39;;;;;;;6.70;4.90;;;;;;;;;;5176169;27;21139;-74
2024/04/23 12:36:07;;;;;;;6.50;4.83;;;;;;;;;;5177718;27;20474;-73
2024/04/23 12:38:43;;;;;;;8.00;4.80;;;;;;;;;;5199035;27;20513;-73
2024/04/23 12:41:11;;;;;;;10.07;6.10;;;;;;;;;;5183533;27;20470;-72
2024/04/23 12:43:37;;;;;;;8.90;5.20;;;;;;;;;;5187826;27;20540;-73
2024/04/23 12:46:02;;;;;;;8.97;4.93;;;;;;;;;;5186200;27;20451;-73
2024/04/23 12:48:28;;;;;;;7.70;4.77;;;;;;;;;;5185098;27;20447;-74
2024/04/23 12:50:54;;;;;;;10.30;5.33;;;;;;;;;;5181988;27;20454;-74
2024/04/23 12:53:21;;;;;;;7.30;5.63;;;;;;;;;;5180344;27;20966;-73
2024/04/23 12:55:47;;;;;;;6.73;4.70;;;;;;;;;;5184712;27;20505;-73
2024/04/23 12:58:13;;;;;;;6.97;4.60;;;;;;;;;;5179645;27;20591;-75
2024/04/23 13:00:39;;;;;;;8.40;5.30;;;;;;;;;;5192878;27;20477;-74
2024/04/23 13:03:05;;;;;;;12.27;5.93;;;;;;;;;;5196183;27;20526;-73
2024/04/23 13:05:31;;;;;;;9.47;4.93;;;;;;;;;;5184434;27;20478;-74
2024/04/23 13:07:57;;;;;;;6.27;4.80;;;;;;;;;;5177834;27;20523;-75
2024/04/23 13:10:23;;;;;;;6.50;4.93;;;;;;;;;;5184303;27;20525;-75
2024/04/23 13:12:49;;;;;;;5.60;4.53;;;;;;;;;;5185454;27;20479;-74
2024/04/23 13:15:15;;;;;;;9.30;5.70;;;;;;;;;;5201840;27;20843;-73
2024/04/23 13:17:41;;;;;;;10.53;5.53;;;;;;;;;;5199889;27;20458;-73
2024/04/23 13:20:08;;;;;;;7.30;5.00;;;;;;;;;;5194022;27;20593;-76
2024/04/23 13:22:34;;;;;;;7.73;5.27;;;;;;;;;;5188651;27;20474;-73
2024/04/23 13:25:01;;;;;;;5.60;4.50;;;;;;;;;;5177477;27;21079;-73
2024/04/23 13:27:27;;;;;;;7.57;5.20;;;;;;;;;;5189207;27;20475;-73
2024/04/23 13:29:53;;;;;;;7.40;5.13;;;;;;;;;;5194044;27;21075;-72
2024/04/23 13:32:19;;;;;;;11.07;6.10;;;;;;;;;;5190431;27;20469;-73
2024/04/23 13:34:45;;;;;;;12.00;5.53;;;;;;;;;;5196414;27;20480;-73
2024/04/23 13:37:11;;;;;;;8.00;5.33;;;;;;;;;;5194220;27;20570;-73
2024/04/23 13:39:38;;;;;;;6.07;4.70;;;;;;;;;;5195647;27;20514;-73
2024/04/23 13:42:04;;;;;;;5.47;4.43;;;;;;;;;;5199967;27;20702;-73
2024/04/23 13:44:32;;;;;;;11.40;5.27;;;;;;;;;;5204505;27;20858;-73
2024/04/23 13:46:58;;;;;;;8.90;4.97;;;;;;;;;;5212113;27;20850;-74
2024/04/23 13:49:24;;;;;;;7.20;4.90;;;;;;;;;;5211193;27;20542;-74
2024/04/23 13:51:50;;;;;;;8.80;4.80;;;;;;;;;;5204020;27;20482;-73
2024/04/23 13:54:16;;;;;;;9.80;5.03;;;;;;;;;;5195878;27;20537;-73
2024/04/23 13:56:42;;;;;;;7.20;4.77;;;;;;;;;;5194812;27;20474;-73
2024/04/23 13:59:08;;;;;;;9.93;5.20;;;;;;;;;;5191723;27;20490;-68
2024/04/23 14:01:34;;;;;;;6.43;4.33;;;;;;;;;;5200973;27;20529;-69
2024/04/23 14:04:00;;;;;;;7.53;4.50;;;;;;;;;;5215192;27;20468;-72
2024/04/23 14:06:26;;;;;;;7.60;5.57;;;;;;;;;;5200554;27;20585;-69
2024/04/23 14:08:53;;;;;;;5.97;4.77;;;;;;;;;;5204767;27;20492;-71
2024/04/23 14:11:19;;;;;;;6.20;4.70;;;;;;;;;;5218880;27;20546;-70
2024/04/23 14:13:45;;;;;;;6.60;4.63;;;;;;;;;;5211775;27;20490;-69
2024/04/23 14:16:11;;;;;;;12.87;4.83;;;;;;;;;;5217227;27;20533;-69
2024/04/23 14:18:37;;;;;;;6.50;4.70;;;;;;;;;;5206291;27;20575;-72
2024/04/23 14:21:04;;;;;;;9.73;5.93;;;;;;;;;;5216011;27;20472;-70
2024/04/23 14:23:34;;;;;;;5.53;4.37;;;;;;;;;;5196845;27;20461;-71
2024/04/23 14:26:00;;;;;;;11.30;4.80;;;;;;;;;;5200330;27;20969;-70
2024/04/23 14:28:29;;;;;;;7.40;4.77;;;;;;;;;;5191071;27;20477;-71
2024/04/23 14:30:55;;;;;;;6.13;4.70;;;;;;;;;;5195740;27;20541;-69
2024/04/23 14:33:21;;;;;;;4.70;4.10;;;;;;;;;;5183324;27;21045;-71
2024/04/23 14:35:47;;;;;;;8.20;5.40;;;;;;;;;;5189875;27;20470;-70
2024/04/23 14:38:15;;;;;;;11.13;5.00;;;;;;;;;;5191104;27;20485;-71
2024/04/23 14:40:41;;;;;;;7.40;4.30;;;;;;;;;;5195749;27;20469;-70
2024/04/23 14:43:07;;;;;;;5.80;4.40;;;;;;;;;;5197348;27;20512;-71
2024/04/23 14:45:34;;;;;;;6.90;4.93;;;;;;;;;;5202474;27;20497;-71
2024/04/23 14:48:00;;;;;;;6.47;4.57;;;;;;;;;;5194728;27;20894;-72
2024/04/23 14:50:27;;;;;;;10.30;4.60;;;;;;;;;;5190918;27;20471;-71
2024/04/23 14:52:53;;;;;;;6.17;4.40;;;;;;;;;;5192530;27;20486;-72
2024/04/23 14:55:19;;;;;;;12.00;4.57;;;;;;;;;;5200411;27;20602;-73
2024/04/23 14:57:45;;;;;;;6.67;4.40;;;;;;;;;;5187621;27;20470;-71
2024/04/23 15:00:11;;;;;;;6.97;4.33;;;;;;;;;;5194959;27;20467;-70
2024/04/23 15:02:37;;;;;;;8.00;4.93;;;;;;;;;;5184808;27;20550;-69
2024/04/23 15:05:05;;;;;;;7.40;4.20;;;;;;;;;;5245389;27;21071;-68
2024/04/23 15:07:31;;;;;;;8.40;4.90;;;;;;;;;;5246483;27;20460;-69
2024/04/23 15:09:58;;;;;;;8.83;4.80;;;;;;;;;;5244924;27;20505;-68
2024/04/23 15:12:24;;;;;;;6.27;4.03;;;;;;;;;;5200175;27;20913;-71
2024/04/23 15:14:52;;;;;;;8.33;4.37;;;;;;;;;;5206906;27;20517;-69
2024/04/23 15:17:18;;;;;;;6.63;4.90;;;;;;;;;;5209918;27;20507;-72
2024/04/23 15:19:47;;;;;;;8.30;4.50;;;;;;;;;;5191062;27;20480;-69
2024/04/23 15:22:13;;;;;;;5.47;4.37;;;;;;;;;;5210802;27;20517;-69
2024/04/23 15:24:40;;;;;;;11.13;4.80;;;;;;;;;;5193084;27;20843;-70
2024/04/23 15:27:06;;;;;;;7.57;4.40;;;;;;;;;;5178067;27;20506;-70
2024/04/23 15:29:32;;;;;;;5.97;4.30;;;;;;;;;;5179227;27;20462;-70
2024/04/23 15:31:58;;;;;;;6.27;4.47;;;;;;;;;;5178242;27;20463;-68
2024/04/23 15:34:24;;;;;;;5.97;4.07;;;;;;;;;;5177771;27;20595;-69
2024/04/23 15:36:52;;;;;;;6.50;4.00;;;;;;;;;;5179700;27;20530;-69
2024/04/23 15:39:18;;;;;;;5.20;4.20;;;;;;;;;;5189062;27;20615;-71
2024/04/23 15:41:44;;;;;;;6.43;4.23;;;;;;;;;;5210014;27;20458;-69
2024/04/23 15:44:10;;;;;;;7.43;3.70;;;;;;;;;;5210714;27;20461;-68
2024/04/23 15:46:36;;;;;;;7.33;4.10;;;;;;;;;;5193166;27;20490;-70
2024/04/23 15:49:02;;;;;;;7.33;4.67;;;;;;;;;;5178921;27;20454;-71
2024/04/23 15:51:28;;;;;;;7.20;3.97;;;;;;;;;;5177157;27;20540;-69
2024/04/23 15:53:54;;;;;;;5.17;3.10;;;;;;;;;;5178349;27;20552;-69
2024/04/23 15:56:20;;;;;;;6.97;4.00;;;;;;;;;;5177797;27;20891;-69
2024/04/23 15:58:46;;;;;;;6.60;3.87;;;;;;;;;;5177278;27;20455;-70
2024/04/23 16:01:12;;;;;;;6.20;3.57;;;;;;;;;;5177798;27;20462;-70
2024/04/23 16:03:41;;;;;;;6.90;4.13;;;;;;;;;;5177185;27;20591;-69
2024/04/23 16:06:13;;;;;;;5.80;3.70;;;;;;;;;;5177357;27;20582;-70
2024/04/23 16:08:39;;;;;;;8.33;4.30;;;;;;;;;;5175709;27;20470;-69
2024/04/23 16:11:05;;;;;;;5.63;3.13;;;;;;;;;;5179479;27;20459;-71
2024/04/23 16:13:31;;;;;;;10.87;4.60;;;;;;;;;;5203320;27;20454;-70
2024/04/23 16:15:57;;;;;;;5.80;4.00;;;;;;;;;;5208705;27;20507;-69
2024/04/23 16:18:24;;;;;;;6.83;4.27;;;;;;;;;;5210278;27;20524;-70
2024/04/23 16:20:50;;;;;;;6.30;3.73;;;;;;;;;;5187574;27;20462;-70
2024/04/23 16:23:16;;;;;;;5.67;3.77;;;;;;;;;;5178026;27;20458;-70
2024/04/23 16:25:42;;;;;;;7.60;4.23;;;;;;;;;;5177771;27;20616;-71
2024/04/23 16:28:08;;;;;;;5.50;4.10;;;;;;;;;;5183110;27;20996;-71
2024/04/23 16:30:34;;;;;;;5.07;3.40;;;;;;;;;;5190144;27;20518;-69
2024/04/23 16:33:02;;;;;;;9.77;4.63;;;;;;;;;;5177945;27;20494;-71
2024/04/23 16:35:29;;;;;;;6.77;4.20;;;;;;;;;;5176935;27;20474;-70
2024/04/23 16:37:55;;;;;;;5.20;3.40;;;;;;;;;;5200424;27;20927;-69
2024/04/23 16:40:21;;;;;;;5.33;3.40;;;;;;;;;;5211491;27;21004;-70
2024/04/23 16:42:47;;;;;;;14.07;3.43;;;;;;;;;;5209309;27;20512;-70
2024/04/23 16:45:13;;;;;;;5.10;3.97;;;;;;;;;;5199896;27;20482;-71
2024/04/23 16:47:39;;;;;;;4.70;3.10;;;;;;;;;;5198604;27;20465;-71
2024/04/23 16:50:05;;;;;;;5.83;4.10;;;;;;;;;;5184992;27;20528;-72
2024/04/23 16:52:31;;;;;;;8.00;3.93;;;;;;;;;;5188422;27;21059;-70
2024/04/23 16:54:57;;;;;;;5.07;3.90;;;;;;;;;;5208343;27;20469;-70
2024/04/23 16:57:23;;;;;;;6.50;3.63;;;;;;;;;;5212407;27;20545;-71
2024/04/23 16:59:50;;;;;;;7.40;4.23;;;;;;;;;;5180478;27;20470;-70
2024/04/23 17:02:15;;;;;;;5.03;4.10;;;;;;;;;;5179394;27;20458;-69
2024/04/23 17:04:42;;;;;;;5.80;3.57;;;;;;;;;;5179679;27;20466;-70
2024/04/23 17:07:08;;;;;;;4.50;3.70;;;;;;;;;;5177141;27;20500;-72
2024/04/23 17:09:34;;;;;;;7.40;3.60;;;;;;;;;;5179405;27;20977;-70
2024/04/23 17:12:00;;;;;;;8.67;4.10;;;;;;;;;;5205384;27;20456;-71
2024/04/23 17:14:26;;;;;;;7.27;4.10;;;;;;;;;;5208350;22;20563;-73
2024/04/23 17:16:53;;;;;;;6.23;3.90;;;;;;;;;;5244708;27;20468;-74
2024/04/23 17:19:19;;;;;;;6.93;4.00;;;;;;;;;;5244364;27;20805;-73
2024/04/23 17:21:45;;;;;;;5.50;3.60;;;;;;;;;;5243185;27;20500;-73
2024/04/23 17:24:11;;;;;;;5.33;3.60;;;;;;;;;;5239584;27;20529;-73
2024/04/23 17:26:37;;;;;;;8.70;4.07;;;;;;;;;;5211609;27;20444;-73
2024/04/23 17:29:03;;;;;;;5.63;3.60;;;;;;;;;;5211094;27;20461;-73
2024/04/23 17:31:29;;;;;;;4.60;3.53;;;;;;;;;;5211213;27;20578;-73
2024/04/23 17:33:55;;;;;;;6.10;3.83;;;;;;;;;;5211212;27;20845;-73
2024/04/23 17:36:21;;;;;;;5.60;3.83;;;;;;;;;;5210652;27;20450;-71
2024/04/23 17:38:47;;;;;;;4.30;3.20;;;;;;;;;;5203454;27;20534;-71
2024/04/23 17:41:13;;;;;;;5.70;3.63;;;;;;;;;;5196426;27;20542;-74
2024/04/23 17:43:39;;;;;;;4.97;3.20;;;;;;;;;;5205006;27;20980;-72
2024/04/23 17:46:05;;;;;;;6.50;5.10;;;;;;;;;;5209701;27;20533;-72
2024/04/23 17:48:34;;;;;;;5.73;3.83;;;;;;;;;;5210658;27;20453;-72
2024/04/23 17:51:06;;;;;;;5.20;3.90;;;;;;;;;;5210889;27;20449;-73
2024/04/23 17:53:32;;;;;;;5.47;3.50;;;;;;;;;;5209006;27;20469;-72
2024/04/23 17:56:05;;;;;;;4.70;3.43;;;;;;;;;;5204144;27;20527;-72
2024/04/23 17:58:32;;;;;;;14.10;5.90;;;;;;;;;;5196979;27;21036;-72
2024/04/23 18:00:58;;;;;;;5.03;3.00;;;;;;;;;;5206351;27;20820;-72
2024/04/23 18:03:26;;;;;;;7.50;3.83;;;;;;;;;;5209488;27;20453;-73
2024/04/23 18:05:52;;;;;;;4.53;3.30;;;;;;;;;;5204553;27;20563;-73
2024/04/23 18:08:18;;;;;;;4.73;3.47;;;;;;;;;;5207331;27;20445;-75
2024/04/23 18:10:44;;;;;;;4.60;3.40;;;;;;;;;;5187094;27;20985;-73
2024/04/23 18:13:10;;;;;;;6.53;3.67;;;;;;;;;;5202604;27;21108;-73
2024/04/23 18:15:36;;;;;;;6.00;3.10;;;;;;;;;;5207955;27;20740;-74
2024/04/23 18:18:02;;;;;;;4.50;3.40;;;;;;;;;;5206203;27;20469;-75
2024/04/23 18:20:28;;;;;;;5.03;3.40;;;;;;;;;;5208912;27;20525;-74
2024/04/23 18:22:53;;;;;;;4.77;3.07;;;;;;;;;;5208998;27;20481;-73
2024/04/23 18:25:21;;;;;;;5.30;3.27;;;;;;;;;;5209037;27;20465;-75
2024/04/23 18:27:47;;;;;;;10.63;4.43;;;;;;;;;;5205601;27;20527;-73
2024/04/23 18:30:13;;;;;;;4.03;3.10;;;;;;;;;;5208543;27;20473;-72
2024/04/23 18:32:39;;;;;;;4.00;3.10;;;;;;;;;;5208732;27;20506;-73
2024/04/23 18:35:05;;;;;;;6.33;3.50;;;;;;;;;;5207585;27;20529;-73
2024/04/23 18:37:31;;;;;;;5.17;3.37;;;;;;;;;;5208153;27;20585;-74
2024/04/23 18:39:57;;;;;;;6.00;3.33;;;;;;;;;;5203708;27;20481;-74
2024/04/23 18:42:23;;;;;;;3.60;2.80;;;;;;;;;;5207929;27;20513;-73
2024/04/23 18:44:49;;;;;;;5.00;3.30;;;;;;;;;;5207938;27;20876;-74
2024/04/23 18:47:16;;;;;;;4.60;2.80;;;;;;;;;;5209290;27;20455;-73
2024/04/23 18:49:42;;;;;;;3.80;2.87;;;;;;;;;;5208548;27;20661;-73
2024/04/23 18:52:08;;;;;;;4.67;3.10;;;;;;;;;;5206550;27;20801;-73
2024/04/23 18:54:34;;;;;;;4.23;2.97;;;;;;;;;;5208352;27;20469;-74
2024/04/23 18:57:00;;;;;;;6.23;3.83;;;;;;;;;;5208381;27;20449;-74
2024/04/23 18:59:26;;;;;;;5.90;3.73;;;;;;;;;;5206328;27;20445;-74
2024/04/23 19:01:52;;;;;;;5.97;4.20;;;;;;;;;;5206920;27;20461;-72
2024/04/23 19:04:18;;;;;;;9.73;4.40;;;;;;;;;;5194428;27;20475;-74
2024/04/23 19:06:46;;;;;;;4.73;2.90;;;;;;;;;;5207675;27;20541;-72
2024/04/23 19:09:12;;;;;;;5.53;4.30;;;;;;;;;;5208263;27;20590;-75
2024/04/23 19:11:38;;;;;;;8.07;4.27;;;;;;;;;;5207609;27;20585;-74
2024/04/23 19:14:05;;;;;;;7.53;4.10;;;;;;;;;;5208212;27;20882;-72
2024/04/23 19:16:31;;;;;;;6.00;3.70;;;;;;;;;;5208178;27;21032;-73
2024/04/23 19:18:57;;;;;;;9.40;4.40;;;;;;;;;;5207371;27;20457;-71
2024/04/23 19:21:24;;;;;;;10.30;3.97;;;;;;;;;;5197710;27;20476;-74
2024/04/23 19:23:50;;;;;;;9.00;4.40;;;;;;;;;;5205112;27;20488;-72
2024/04/23 19:26:19;;;;;;;8.40;4.30;;;;;;;;;;5207504;27;20457;-75
2024/04/23 19:28:46;;;;;;;8.27;4.63;;;;;;;;;;5206240;27;20477;-73
2024/04/23 19:31:12;;;;;;;5.03;3.93;;;;;;;;;;5208501;27;20509;-73
2024/04/23 19:33:39;;;;;;;10.30;4.43;;;;;;;;;;5207875;27;20637;-72
2024/04/23 19:36:05;;;;;;;9.93;5.60;;;;;;;;;;5207821;27;20480;-73